sensor_id;sensor_type;location;lat;lon;timestamp;P1;durP1;ratioP1;P2;durP2;ratioP2
4921;SDS011;16625;53.624;10.106;2022-10-15T00:00:17;22.37;;;10.90;;
4921;SDS011;16625;53.624;10.106;2022-10-15T00:02:52;15.30;;;10.60;;
4921;SDS011;16625;53.624;10.106;2022-10-15T00:05:22;21.93;;;10.33;;
4921;SDS011;16625;53.624;10.106;2022-10-15T00:07:56;14.90;;;8.40;;
4921;SDS011;16625;53.624;10.106;2022-10-15T00:10:23;17.80;;;9.93;;
4921;SDS011;16625;53.624;10.106;2022-10-15T00:12:56;20.53;;;11.20;;
4921;SDS011;16625;53.624;10.106;2022-10-15T00:15:23;18.07;;;10.27;;
4921;SDS011;16625;53.624;10.106;2022-10-15T00:17:52;20.07;;;10.90;;
4921;SDS011;16625;53.624;10.106;2022-10-15T00:20:22;18.80;;;11.20;;
4921;SDS011;16625;53.624;10.106;2022-10-15T00:23:00;19.87;;;11.60;;
4921;SDS011;16625;53.624;10.106;2022-10-15T00:25:26;17.67;;;11.63;;
4921;SDS011;16625;53.624;10.106;2022-10-15T00:27:56;16.40;;;11.17;;
4921;SDS011;16625;53.624;10.106;2022-10-15T00:30:29;18.20;;;10.90;;
4921;SDS011;16625;53.624;10.106;2022-10-15T00:33:00;20.63;;;13.50;;
4921;SDS011;16625;53.624;10.106;2022-10-15T00:35:27;21.63;;;11.63;;
4921;SDS011;16625;53.624;10.106;2022-10-15T00:37:54;23.53;;;12.93;;
4921;SDS011;16625;53.624;10.106;2022-10-15T00:40:28;17.93;;;11.80;;
4921;SDS011;16625;53.624;10.106;2022-10-15T00:42:55;21.27;;;13.10;;
4921;SDS011;16625;53.624;10.106;2022-10-15T00:45:25;28.97;;;12.43;;
4921;SDS011;16625;53.624;10.106;2022-10-15T00:47:52;26.93;;;15.03;;
4921;SDS011;16625;53.624;10.106;2022-10-15T00:50:27;20.90;;;14.17;;
4921;SDS011;16625;53.624;10.106;2022-10-15T00:52:56;24.97;;;15.27;;
4921;SDS011;16625;53.624;10.106;2022-10-15T00:55:26;21.33;;;12.97;;
4921;SDS011;16625;53.624;10.106;2022-10-15T00:57:57;29.30;;;14.70;;
4921;SDS011;16625;53.624;10.106;2022-10-15T01:00:42;27.23;;;13.20;;
4921;SDS011;16625;53.624;10.106;2022-10-15T01:03:09;25.90;;;13.80;;
4921;SDS011;16625;53.624;10.106;2022-10-15T01:05:36;31.23;;;17.00;;
4921;SDS011;16625;53.624;10.106;2022-10-15T01:08:04;25.93;;;14.87;;
4921;SDS011;16625;53.624;10.106;2022-10-15T01:10:35;22.47;;;14.10;;
4921;SDS011;16625;53.624;10.106;2022-10-15T01:13:10;25.43;;;15.33;;
4921;SDS011;16625;53.624;10.106;2022-10-15T01:15:48;25.37;;;15.80;;
4921;SDS011;16625;53.624;10.106;2022-10-15T01:18:21;28.40;;;15.27;;
4921;SDS011;16625;53.624;10.106;2022-10-15T01:20:55;33.80;;;17.23;;
4921;SDS011;16625;53.624;10.106;2022-10-15T01:23:33;31.10;;;18.77;;
4921;SDS011;16625;53.624;10.106;2022-10-15T01:26:24;33.13;;;17.40;;
4921;SDS011;16625;53.624;10.106;2022-10-15T01:29:10;32.27;;;18.07;;
4921;SDS011;16625;53.624;10.106;2022-10-15T01:31:48;32.30;;;17.00;;
4921;SDS011;16625;53.624;10.106;2022-10-15T01:34:20;38.07;;;21.33;;
4921;SDS011;16625;53.624;10.106;2022-10-15T01:36:54;37.23;;;20.10;;
4921;SDS011;16625;53.624;10.106;2022-10-15T01:39:26;34.53;;;18.10;;
4921;SDS011;16625;53.624;10.106;2022-10-15T01:41:58;37.40;;;19.23;;
4921;SDS011;16625;53.624;10.106;2022-10-15T01:44:28;30.73;;;19.03;;
4921;SDS011;16625;53.624;10.106;2022-10-15T01:47:00;39.63;;;20.33;;
4921;SDS011;16625;53.624;10.106;2022-10-15T01:49:30;39.83;;;21.37;;
4921;SDS011;16625;53.624;10.106;2022-10-15T01:52:05;32.13;;;19.43;;
4921;SDS011;16625;53.624;10.106;2022-10-15T01:54:35;42.13;;;18.83;;
4921;SDS011;16625;53.624;10.106;2022-10-15T01:57:03;38.73;;;20.90;;
4921;SDS011;16625;53.624;10.106;2022-10-15T01:59:31;43.03;;;21.10;;
4921;SDS011;16625;53.624;10.106;2022-10-15T02:02:00;39.47;;;20.40;;
4921;SDS011;16625;53.624;10.106;2022-10-15T02:04:27;48.43;;;21.10;;
4921;SDS011;16625;53.624;10.106;2022-10-15T02:06:56;36.17;;;20.00;;
4921;SDS011;16625;53.624;10.106;2022-10-15T02:09:31;40.97;;;22.40;;
4921;SDS011;16625;53.624;10.106;2022-10-15T02:12:08;38.17;;;19.90;;
4921;SDS011;16625;53.624;10.106;2022-10-15T02:14:43;35.43;;;19.00;;
4921;SDS011;16625;53.624;10.106;2022-10-15T02:17:18;35.43;;;20.80;;
4921;SDS011;16625;53.624;10.106;2022-10-15T02:19:54;38.03;;;20.47;;
4921;SDS011;16625;53.624;10.106;2022-10-15T02:22:25;39.93;;;19.60;;
4921;SDS011;16625;53.624;10.106;2022-10-15T02:24:58;45.27;;;19.30;;
4921;SDS011;16625;53.624;10.106;2022-10-15T02:27:30;44.37;;;20.70;;
4921;SDS011;16625;53.624;10.106;2022-10-15T02:29:59;41.63;;;21.07;;
4921;SDS011;16625;53.624;10.106;2022-10-15T02:32:32;40.47;;;19.70;;
4921;SDS011;16625;53.624;10.106;2022-10-15T02:35:01;41.40;;;21.43;;
4921;SDS011;16625;53.624;10.106;2022-10-15T02:37:29;39.77;;;22.87;;
4921;SDS011;16625;53.624;10.106;2022-10-15T02:39:57;44.60;;;22.10;;
4921;SDS011;16625;53.624;10.106;2022-10-15T02:42:24;41.93;;;21.77;;
4921;SDS011;16625;53.624;10.106;2022-10-15T02:44:51;40.00;;;21.83;;
4921;SDS011;16625;53.624;10.106;2022-10-15T02:47:18;42.97;;;22.17;;
4921;SDS011;16625;53.624;10.106;2022-10-15T02:49:46;46.77;;;21.20;;
4921;SDS011;16625;53.624;10.106;2022-10-15T02:52:13;46.00;;;23.27;;
4921;SDS011;16625;53.624;10.106;2022-10-15T02:54:40;48.23;;;23.30;;
4921;SDS011;16625;53.624;10.106;2022-10-15T02:57:07;53.47;;;25.20;;
4921;SDS011;16625;53.624;10.106;2022-10-15T02:59:33;49.13;;;23.97;;
4921;SDS011;16625;53.624;10.106;2022-10-15T03:02:00;49.30;;;22.17;;
4921;SDS011;16625;53.624;10.106;2022-10-15T03:04:27;49.63;;;24.87;;
4921;SDS011;16625;53.624;10.106;2022-10-15T03:06:55;45.63;;;22.60;;
4921;SDS011;16625;53.624;10.106;2022-10-15T03:09:22;48.33;;;25.40;;
4921;SDS011;16625;53.624;10.106;2022-10-15T03:11:48;44.77;;;22.70;;
4921;SDS011;16625;53.624;10.106;2022-10-15T03:14:15;53.33;;;24.20;;
4921;SDS011;16625;53.624;10.106;2022-10-15T03:16:42;43.27;;;19.90;;
4921;SDS011;16625;53.624;10.106;2022-10-15T03:19:09;47.23;;;22.93;;
4921;SDS011;16625;53.624;10.106;2022-10-15T03:21:35;45.23;;;23.83;;
4921;SDS011;16625;53.624;10.106;2022-10-15T03:24:04;42.63;;;22.87;;
4921;SDS011;16625;53.624;10.106;2022-10-15T03:26:31;42.20;;;21.57;;
4921;SDS011;16625;53.624;10.106;2022-10-15T03:28:58;50.70;;;22.10;;
4921;SDS011;16625;53.624;10.106;2022-10-15T03:31:24;43.10;;;21.07;;
4921;SDS011;16625;53.624;10.106;2022-10-15T03:33:51;42.93;;;22.27;;
4921;SDS011;16625;53.624;10.106;2022-10-15T03:36:18;43.60;;;20.50;;
4921;SDS011;16625;53.624;10.106;2022-10-15T03:38:45;46.90;;;23.67;;
4921;SDS011;16625;53.624;10.106;2022-10-15T03:41:13;41.40;;;22.27;;
4921;SDS011;16625;53.624;10.106;2022-10-15T03:43:40;47.30;;;22.07;;
4921;SDS011;16625;53.624;10.106;2022-10-15T03:46:06;38.03;;;20.60;;
4921;SDS011;16625;53.624;10.106;2022-10-15T03:48:33;33.47;;;19.63;;
4921;SDS011;16625;53.624;10.106;2022-10-15T03:51:00;40.67;;;20.73;;
4921;SDS011;16625;53.624;10.106;2022-10-15T03:53:26;36.27;;;18.90;;
4921;SDS011;16625;53.624;10.106;2022-10-15T03:55:53;40.30;;;20.33;;
4921;SDS011;16625;53.624;10.106;2022-10-15T03:58:21;39.10;;;18.40;;
4921;SDS011;16625;53.624;10.106;2022-10-15T04:00:48;44.33;;;17.80;;
4921;SDS011;16625;53.624;10.106;2022-10-15T04:03:15;42.10;;;18.17;;
4921;SDS011;16625;53.624;10.106;2022-10-15T04:05:48;36.30;;;19.80;;
4921;SDS011;16625;53.624;10.106;2022-10-15T04:08:15;40.87;;;20.40;;
4921;SDS011;16625;53.624;10.106;2022-10-15T04:10:42;29.90;;;16.63;;
4921;SDS011;16625;53.624;10.106;2022-10-15T04:13:08;40.40;;;20.00;;
4921;SDS011;16625;53.624;10.106;2022-10-15T04:15:38;40.67;;;18.57;;
4921;SDS011;16625;53.624;10.106;2022-10-15T04:18:05;33.77;;;18.47;;
4921;SDS011;16625;53.624;10.106;2022-10-15T04:20:32;41.90;;;18.90;;
4921;SDS011;16625;53.624;10.106;2022-10-15T04:22:58;34.50;;;18.60;;
4921;SDS011;16625;53.624;10.106;2022-10-15T04:25:25;38.90;;;18.17;;
4921;SDS011;16625;53.624;10.106;2022-10-15T04:27:52;44.23;;;19.73;;
4921;SDS011;16625;53.624;10.106;2022-10-15T04:30:20;44.23;;;20.20;;
4921;SDS011;16625;53.624;10.106;2022-10-15T04:32:51;43.07;;;21.23;;
4921;SDS011;16625;53.624;10.106;2022-10-15T04:35:18;44.67;;;20.37;;
4921;SDS011;16625;53.624;10.106;2022-10-15T04:37:45;39.43;;;19.83;;
4921;SDS011;16625;53.624;10.106;2022-10-15T04:40:12;43.00;;;19.40;;
4921;SDS011;16625;53.624;10.106;2022-10-15T04:42:39;52.33;;;22.40;;
4921;SDS011;16625;53.624;10.106;2022-10-15T04:45:06;44.63;;;20.30;;
4921;SDS011;16625;53.624;10.106;2022-10-15T04:47:33;45.83;;;21.13;;
4921;SDS011;16625;53.624;10.106;2022-10-15T04:50:01;42.90;;;21.17;;
4921;SDS011;16625;53.624;10.106;2022-10-15T04:52:28;42.00;;;18.17;;
4921;SDS011;16625;53.624;10.106;2022-10-15T04:54:55;39.07;;;19.53;;
4921;SDS011;16625;53.624;10.106;2022-10-15T04:57:23;43.57;;;20.77;;
4921;SDS011;16625;53.624;10.106;2022-10-15T04:59:50;43.53;;;20.83;;
4921;SDS011;16625;53.624;10.106;2022-10-15T05:02:18;41.20;;;19.00;;
4921;SDS011;16625;53.624;10.106;2022-10-15T05:04:45;49.67;;;22.13;;
4921;SDS011;16625;53.624;10.106;2022-10-15T05:07:13;51.70;;;21.97;;
4921;SDS011;16625;53.624;10.106;2022-10-15T05:09:40;40.80;;;19.87;;
4921;SDS011;16625;53.624;10.106;2022-10-15T05:12:07;41.03;;;19.97;;
4921;SDS011;16625;53.624;10.106;2022-10-15T05:14:33;53.60;;;22.17;;
4921;SDS011;16625;53.624;10.106;2022-10-15T05:17:00;45.80;;;22.63;;
4921;SDS011;16625;53.624;10.106;2022-10-15T05:19:27;47.70;;;21.77;;
4921;SDS011;16625;53.624;10.106;2022-10-15T05:21:54;50.40;;;19.67;;
4921;SDS011;16625;53.624;10.106;2022-10-15T05:24:22;50.60;;;23.10;;
4921;SDS011;16625;53.624;10.106;2022-10-15T05:26:49;51.40;;;21.43;;
4921;SDS011;16625;53.624;10.106;2022-10-15T05:29:16;42.90;;;22.30;;
4921;SDS011;16625;53.624;10.106;2022-10-15T05:31:42;58.60;;;22.93;;
4921;SDS011;16625;53.624;10.106;2022-10-15T05:34:10;54.90;;;21.80;;
4921;SDS011;16625;53.624;10.106;2022-10-15T05:36:39;57.93;;;23.20;;
4921;SDS011;16625;53.624;10.106;2022-10-15T05:39:06;47.87;;;23.43;;
4921;SDS011;16625;53.624;10.106;2022-10-15T05:41:36;62.10;;;24.00;;
4921;SDS011;16625;53.624;10.106;2022-10-15T05:44:02;62.97;;;24.03;;
4921;SDS011;16625;53.624;10.106;2022-10-15T05:46:29;57.37;;;24.20;;
4921;SDS011;16625;53.624;10.106;2022-10-15T05:48:56;58.47;;;25.07;;
4921;SDS011;16625;53.624;10.106;2022-10-15T05:51:24;61.43;;;25.23;;
4921;SDS011;16625;53.624;10.106;2022-10-15T05:53:52;57.33;;;22.37;;
4921;SDS011;16625;53.624;10.106;2022-10-15T05:56:19;65.07;;;25.07;;
4921;SDS011;16625;53.624;10.106;2022-10-15T05:58:48;55.07;;;23.23;;
4921;SDS011;16625;53.624;10.106;2022-10-15T06:01:15;47.70;;;21.60;;
4921;SDS011;16625;53.624;10.106;2022-10-15T06:03:42;53.07;;;22.50;;
4921;SDS011;16625;53.624;10.106;2022-10-15T06:06:13;51.23;;;21.90;;
4921;SDS011;16625;53.624;10.106;2022-10-15T06:08:41;59.07;;;22.07;;
4921;SDS011;16625;53.624;10.106;2022-10-15T06:11:08;49.80;;;22.60;;
4921;SDS011;16625;53.624;10.106;2022-10-15T06:13:36;48.47;;;22.30;;
4921;SDS011;16625;53.624;10.106;2022-10-15T06:16:06;58.43;;;23.23;;
4921;SDS011;16625;53.624;10.106;2022-10-15T06:18:33;57.83;;;23.23;;
4921;SDS011;16625;53.624;10.106;2022-10-15T06:21:01;52.87;;;22.43;;
4921;SDS011;16625;53.624;10.106;2022-10-15T06:23:27;54.60;;;23.10;;
4921;SDS011;16625;53.624;10.106;2022-10-15T06:25:54;78.07;;;24.23;;
4921;SDS011;16625;53.624;10.106;2022-10-15T06:28:21;58.27;;;24.10;;
4921;SDS011;16625;53.624;10.106;2022-10-15T06:30:48;51.77;;;21.43;;
4921;SDS011;16625;53.624;10.106;2022-10-15T06:33:16;48.77;;;22.50;;
4921;SDS011;16625;53.624;10.106;2022-10-15T06:35:43;59.13;;;23.03;;
4921;SDS011;16625;53.624;10.106;2022-10-15T06:38:10;55.43;;;23.53;;
4921;SDS011;16625;53.624;10.106;2022-10-15T06:40:37;46.17;;;21.97;;
4921;SDS011;16625;53.624;10.106;2022-10-15T06:43:04;51.43;;;22.70;;
4921;SDS011;16625;53.624;10.106;2022-10-15T06:45:33;50.03;;;22.63;;
4921;SDS011;16625;53.624;10.106;2022-10-15T06:48:02;53.47;;;22.50;;
4921;SDS011;16625;53.624;10.106;2022-10-15T06:50:31;51.37;;;22.67;;
4921;SDS011;16625;53.624;10.106;2022-10-15T06:52:58;55.07;;;22.80;;
4921;SDS011;16625;53.624;10.106;2022-10-15T06:55:25;53.33;;;23.17;;
4921;SDS011;16625;53.624;10.106;2022-10-15T06:57:53;50.80;;;22.83;;
4921;SDS011;16625;53.624;10.106;2022-10-15T07:00:20;55.50;;;23.03;;
4921;SDS011;16625;53.624;10.106;2022-10-15T07:02:48;47.63;;;22.27;;
4921;SDS011;16625;53.624;10.106;2022-10-15T07:05:15;56.00;;;23.13;;
4921;SDS011;16625;53.624;10.106;2022-10-15T07:07:43;51.20;;;23.37;;
4921;SDS011;16625;53.624;10.106;2022-10-15T07:10:16;59.43;;;24.17;;
4921;SDS011;16625;53.624;10.106;2022-10-15T07:12:43;52.07;;;24.67;;
4921;SDS011;16625;53.624;10.106;2022-10-15T07:15:10;54.07;;;24.37;;
4921;SDS011;16625;53.624;10.106;2022-10-15T07:17:37;59.50;;;25.93;;
4921;SDS011;16625;53.624;10.106;2022-10-15T07:20:04;50.37;;;24.00;;
4921;SDS011;16625;53.624;10.106;2022-10-15T07:22:32;46.23;;;23.33;;
4921;SDS011;16625;53.624;10.106;2022-10-15T07:25:00;57.50;;;25.57;;
4921;SDS011;16625;53.624;10.106;2022-10-15T07:27:27;51.30;;;23.37;;
4921;SDS011;16625;53.624;10.106;2022-10-15T07:29:54;44.13;;;22.57;;
4921;SDS011;16625;53.624;10.106;2022-10-15T07:32:22;49.73;;;25.27;;
4921;SDS011;16625;53.624;10.106;2022-10-15T07:34:49;51.53;;;24.17;;
4921;SDS011;16625;53.624;10.106;2022-10-15T07:37:16;54.90;;;23.00;;
4921;SDS011;16625;53.624;10.106;2022-10-15T07:39:43;53.63;;;23.70;;
4921;SDS011;16625;53.624;10.106;2022-10-15T07:42:11;47.33;;;22.80;;
4921;SDS011;16625;53.624;10.106;2022-10-15T07:44:38;49.27;;;21.40;;
4921;SDS011;16625;53.624;10.106;2022-10-15T07:47:05;57.07;;;25.20;;
4921;SDS011;16625;53.624;10.106;2022-10-15T07:49:33;53.87;;;24.13;;
4921;SDS011;16625;53.624;10.106;2022-10-15T07:52:00;43.40;;;20.80;;
4921;SDS011;16625;53.624;10.106;2022-10-15T07:54:27;52.27;;;24.10;;
4921;SDS011;16625;53.624;10.106;2022-10-15T07:56:53;45.17;;;21.40;;
4921;SDS011;16625;53.624;10.106;2022-10-15T07:59:26;46.30;;;23.57;;
4921;SDS011;16625;53.624;10.106;2022-10-15T08:01:53;57.53;;;23.03;;
4921;SDS011;16625;53.624;10.106;2022-10-15T08:04:20;44.30;;;21.77;;
4921;SDS011;16625;53.624;10.106;2022-10-15T08:06:47;54.13;;;24.97;;
4921;SDS011;16625;53.624;10.106;2022-10-15T08:09:14;51.27;;;20.80;;
4921;SDS011;16625;53.624;10.106;2022-10-15T08:11:41;41.37;;;21.30;;
4921;SDS011;16625;53.624;10.106;2022-10-15T08:14:08;41.50;;;21.20;;
4921;SDS011;16625;53.624;10.106;2022-10-15T08:16:36;38.43;;;21.27;;
4921;SDS011;16625;53.624;10.106;2022-10-15T08:19:03;43.10;;;19.53;;
4921;SDS011;16625;53.624;10.106;2022-10-15T08:21:30;42.50;;;20.33;;
4921;SDS011;16625;53.624;10.106;2022-10-15T08:23:57;42.17;;;20.27;;
4921;SDS011;16625;53.624;10.106;2022-10-15T08:26:24;35.93;;;20.17;;
4921;SDS011;16625;53.624;10.106;2022-10-15T08:28:51;37.00;;;19.90;;
4921;SDS011;16625;53.624;10.106;2022-10-15T08:31:18;37.90;;;18.93;;
4921;SDS011;16625;53.624;10.106;2022-10-15T08:33:46;33.37;;;17.33;;
4921;SDS011;16625;53.624;10.106;2022-10-15T08:36:13;35.00;;;19.40;;
4921;SDS011;16625;53.624;10.106;2022-10-15T08:38:40;39.60;;;20.50;;
4921;SDS011;16625;53.624;10.106;2022-10-15T08:41:13;41.03;;;19.50;;
4921;SDS011;16625;53.624;10.106;2022-10-15T08:43:46;47.30;;;20.90;;
4921;SDS011;16625;53.624;10.106;2022-10-15T08:46:15;36.00;;;19.63;;
4921;SDS011;16625;53.624;10.106;2022-10-15T08:48:49;38.80;;;18.97;;
4921;SDS011;16625;53.624;10.106;2022-10-15T08:51:19;27.20;;;17.70;;
4921;SDS011;16625;53.624;10.106;2022-10-15T08:53:48;38.13;;;19.47;;
4921;SDS011;16625;53.624;10.106;2022-10-15T08:56:18;36.03;;;17.20;;
4921;SDS011;16625;53.624;10.106;2022-10-15T08:58:50;38.20;;;18.17;;
4921;SDS011;16625;53.624;10.106;2022-10-15T09:01:25;38.90;;;19.00;;
4921;SDS011;16625;53.624;10.106;2022-10-15T09:04:03;36.60;;;18.50;;
4921;SDS011;16625;53.624;10.106;2022-10-15T09:06:39;31.60;;;17.40;;
4921;SDS011;16625;53.624;10.106;2022-10-15T09:09:07;33.53;;;19.83;;
4921;SDS011;16625;53.624;10.106;2022-10-15T09:11:43;34.53;;;18.00;;
4921;SDS011;16625;53.624;10.106;2022-10-15T09:14:19;35.23;;;17.57;;
4921;SDS011;16625;53.624;10.106;2022-10-15T09:16:49;32.13;;;18.27;;
4921;SDS011;16625;53.624;10.106;2022-10-15T09:19:18;43.67;;;17.10;;
4921;SDS011;16625;53.624;10.106;2022-10-15T09:21:46;36.63;;;18.27;;
4921;SDS011;16625;53.624;10.106;2022-10-15T09:24:16;32.77;;;18.70;;
4921;SDS011;16625;53.624;10.106;2022-10-15T09:26:49;38.17;;;18.90;;
4921;SDS011;16625;53.624;10.106;2022-10-15T09:29:26;42.90;;;18.70;;
4921;SDS011;16625;53.624;10.106;2022-10-15T09:32:02;34.70;;;18.97;;
4921;SDS011;16625;53.624;10.106;2022-10-15T09:34:38;38.43;;;17.80;;
4921;SDS011;16625;53.624;10.106;2022-10-15T09:37:13;40.60;;;17.30;;
4921;SDS011;16625;53.624;10.106;2022-10-15T09:39:47;32.83;;;14.93;;
4921;SDS011;16625;53.624;10.106;2022-10-15T09:42:27;28.07;;;14.67;;
4921;SDS011;16625;53.624;10.106;2022-10-15T09:44:56;37.00;;;16.37;;
4921;SDS011;16625;53.624;10.106;2022-10-15T09:47:26;32.77;;;15.90;;
4921;SDS011;16625;53.624;10.106;2022-10-15T09:49:55;38.37;;;16.73;;
4921;SDS011;16625;53.624;10.106;2022-10-15T09:52:24;32.13;;;15.33;;
4921;SDS011;16625;53.624;10.106;2022-10-15T09:55:07;29.00;;;14.97;;
4921;SDS011;16625;53.624;10.106;2022-10-15T09:57:40;29.40;;;14.17;;
4921;SDS011;16625;53.624;10.106;2022-10-15T10:00:12;23.20;;;13.70;;
4921;SDS011;16625;53.624;10.106;2022-10-15T10:02:39;29.30;;;15.77;;
4921;SDS011;16625;53.624;10.106;2022-10-15T10:05:18;29.77;;;14.87;;
4921;SDS011;16625;53.624;10.106;2022-10-15T10:07:54;24.27;;;13.20;;
4921;SDS011;16625;53.624;10.106;2022-10-15T10:10:33;26.13;;;14.63;;
4921;SDS011;16625;53.624;10.106;2022-10-15T10:13:02;27.30;;;13.33;;
4921;SDS011;16625;53.624;10.106;2022-10-15T10:15:47;24.27;;;14.70;;
4921;SDS011;16625;53.624;10.106;2022-10-15T10:18:17;23.33;;;14.33;;
4921;SDS011;16625;53.624;10.106;2022-10-15T10:20:52;20.80;;;11.50;;
4921;SDS011;16625;53.624;10.106;2022-10-15T10:23:23;20.97;;;12.50;;
4921;SDS011;16625;53.624;10.106;2022-10-15T10:25:55;25.13;;;13.17;;
4921;SDS011;16625;53.624;10.106;2022-10-15T10:28:26;27.83;;;13.40;;
4921;SDS011;16625;53.624;10.106;2022-10-15T10:31:03;24.33;;;12.80;;
4921;SDS011;16625;53.624;10.106;2022-10-15T10:33:33;20.10;;;11.87;;
4921;SDS011;16625;53.624;10.106;2022-10-15T10:36:17;27.87;;;12.77;;
4921;SDS011;16625;53.624;10.106;2022-10-15T10:38:53;24.60;;;12.00;;
4921;SDS011;16625;53.624;10.106;2022-10-15T10:41:23;23.07;;;13.00;;
4921;SDS011;16625;53.624;10.106;2022-10-15T10:44:20;19.90;;;11.63;;
4921;SDS011;16625;53.624;10.106;2022-10-15T10:49:37;23.23;;;11.70;;
4921;SDS011;16625;53.624;10.106;2022-10-15T10:52:10;17.00;;;10.90;;
4921;SDS011;16625;53.624;10.106;2022-10-15T10:54:45;24.43;;;12.07;;
4921;SDS011;16625;53.624;10.106;2022-10-15T10:57:14;16.93;;;10.37;;
4921;SDS011;16625;53.624;10.106;2022-10-15T10:59:48;17.93;;;11.00;;
4921;SDS011;16625;53.624;10.106;2022-10-15T11:02:19;23.43;;;10.93;;
4921;SDS011;16625;53.624;10.106;2022-10-15T11:04:46;16.10;;;9.77;;
4921;SDS011;16625;53.624;10.106;2022-10-15T11:07:14;18.40;;;9.47;;
4921;SDS011;16625;53.624;10.106;2022-10-15T11:09:50;19.87;;;8.50;;
4921;SDS011;16625;53.624;10.106;2022-10-15T11:12:26;15.83;;;9.00;;
4921;SDS011;16625;53.624;10.106;2022-10-15T11:15:05;13.13;;;7.80;;
4921;SDS011;16625;53.624;10.106;2022-10-15T11:17:47;14.90;;;8.67;;
4921;SDS011;16625;53.624;10.106;2022-10-15T11:20:22;14.50;;;8.57;;
4921;SDS011;16625;53.624;10.106;2022-10-15T11:22:56;13.77;;;8.30;;
4921;SDS011;16625;53.624;10.106;2022-10-15T11:25:33;17.47;;;8.97;;
4921;SDS011;16625;53.624;10.106;2022-10-15T11:31:06;13.10;;;8.00;;
4921;SDS011;16625;53.624;10.106;2022-10-15T11:33:47;13.03;;;7.77;;
4921;SDS011;16625;53.624;10.106;2022-10-15T11:36:25;11.97;;;6.27;;
4921;SDS011;16625;53.624;10.106;2022-10-15T11:39:11;12.90;;;7.47;;
4921;SDS011;16625;53.624;10.106;2022-10-15T11:41:50;10.90;;;7.17;;
4921;SDS011;16625;53.624;10.106;2022-10-15T11:44:37;18.07;;;7.17;;
4921;SDS011;16625;53.624;10.106;2022-10-15T11:47:20;13.67;;;7.03;;
4921;SDS011;16625;53.624;10.106;2022-10-15T11:49:56;13.67;;;6.97;;
4921;SDS011;16625;53.624;10.106;2022-10-15T11:52:41;12.47;;;5.47;;
4921;SDS011;16625;53.624;10.106;2022-10-15T11:55:16;8.80;;;4.27;;
4921;SDS011;16625;53.624;10.106;2022-10-15T11:57:46;9.57;;;4.40;;
4921;SDS011;16625;53.624;10.106;2022-10-15T12:00:22;8.83;;;4.40;;
4921;SDS011;16625;53.624;10.106;2022-10-15T12:02:59;7.40;;;3.77;;
4921;SDS011;16625;53.624;10.106;2022-10-15T12:05:31;7.17;;;3.90;;
4921;SDS011;16625;53.624;10.106;2022-10-15T12:08:01;6.00;;;3.60;;
4921;SDS011;16625;53.624;10.106;2022-10-15T12:10:32;6.90;;;4.00;;
4921;SDS011;16625;53.624;10.106;2022-10-15T12:13:08;11.43;;;3.90;;
4921;SDS011;16625;53.624;10.106;2022-10-15T12:15:41;6.17;;;3.40;;
4921;SDS011;16625;53.624;10.106;2022-10-15T12:18:17;7.27;;;3.50;;
4921;SDS011;16625;53.624;10.106;2022-10-15T12:20:49;7.70;;;4.00;;
4921;SDS011;16625;53.624;10.106;2022-10-15T12:23:23;5.53;;;3.17;;
4921;SDS011;16625;53.624;10.106;2022-10-15T12:25:51;3.93;;;2.97;;
4921;SDS011;16625;53.624;10.106;2022-10-15T12:28:19;5.17;;;3.10;;
4921;SDS011;16625;53.624;10.106;2022-10-15T12:30:54;8.20;;;4.20;;
4921;SDS011;16625;53.624;10.106;2022-10-15T12:33:24;6.50;;;3.60;;
4921;SDS011;16625;53.624;10.106;2022-10-15T12:35:56;12.83;;;3.20;;
4921;SDS011;16625;53.624;10.106;2022-10-15T12:38:26;8.77;;;3.40;;
4921;SDS011;16625;53.624;10.106;2022-10-15T12:40:56;10.77;;;3.20;;
4921;SDS011;16625;53.624;10.106;2022-10-15T12:43:26;7.53;;;3.07;;
4921;SDS011;16625;53.624;10.106;2022-10-15T12:45:56;5.13;;;3.43;;
4921;SDS011;16625;53.624;10.106;2022-10-15T12:48:30;8.13;;;3.63;;
4921;SDS011;16625;53.624;10.106;2022-10-15T12:54:15;5.90;;;3.50;;
4921;SDS011;16625;53.624;10.106;2022-10-15T13:00:31;9.73;;;4.00;;
4921;SDS011;16625;53.624;10.106;2022-10-15T13:03:13;6.83;;;4.33;;
4921;SDS011;16625;53.624;10.106;2022-10-15T13:05:43;6.40;;;3.77;;
4921;SDS011;16625;53.624;10.106;2022-10-15T13:08:11;8.10;;;3.83;;
4921;SDS011;16625;53.624;10.106;2022-10-15T13:10:44;11.43;;;4.20;;
4921;SDS011;16625;53.624;10.106;2022-10-15T13:13:15;5.07;;;3.23;;
4921;SDS011;16625;53.624;10.106;2022-10-15T13:15:49;7.30;;;3.97;;
4921;SDS011;16625;53.624;10.106;2022-10-15T13:18:18;5.90;;;3.07;;
4921;SDS011;16625;53.624;10.106;2022-10-15T13:20:47;6.67;;;3.80;;
4921;SDS011;16625;53.624;10.106;2022-10-15T13:23:19;5.47;;;3.50;;
4921;SDS011;16625;53.624;10.106;2022-10-15T13:25:47;3.50;;;2.70;;
4921;SDS011;16625;53.624;10.106;2022-10-15T13:28:30;5.80;;;3.57;;
4921;SDS011;16625;53.624;10.106;2022-10-15T13:31:01;4.97;;;3.43;;
4921;SDS011;16625;53.624;10.106;2022-10-15T13:33:31;8.23;;;3.83;;
4921;SDS011;16625;53.624;10.106;2022-10-15T13:36:04;5.00;;;3.33;;
4921;SDS011;16625;53.624;10.106;2022-10-15T13:38:32;7.23;;;3.87;;
4921;SDS011;16625;53.624;10.106;2022-10-15T13:41:00;10.90;;;4.73;;
4921;SDS011;16625;53.624;10.106;2022-10-15T13:43:27;5.30;;;4.07;;
4921;SDS011;16625;53.624;10.106;2022-10-15T13:45:56;7.20;;;3.80;;
4921;SDS011;16625;53.624;10.106;2022-10-15T13:48:24;15.50;;;3.87;;
4921;SDS011;16625;53.624;10.106;2022-10-15T13:50:54;6.00;;;3.70;;
4921;SDS011;16625;53.624;10.106;2022-10-15T13:53:24;6.67;;;3.67;;
4921;SDS011;16625;53.624;10.106;2022-10-15T13:55:54;5.70;;;4.20;;
4921;SDS011;16625;53.624;10.106;2022-10-15T13:58:23;6.93;;;4.87;;
4921;SDS011;16625;53.624;10.106;2022-10-15T14:00:53;11.17;;;4.70;;
4921;SDS011;16625;53.624;10.106;2022-10-15T14:03:23;10.40;;;4.53;;
4921;SDS011;16625;53.624;10.106;2022-10-15T14:05:52;11.37;;;5.17;;
4921;SDS011;16625;53.624;10.106;2022-10-15T14:08:23;9.40;;;5.07;;
4921;SDS011;16625;53.624;10.106;2022-10-15T14:10:52;9.27;;;5.50;;
4921;SDS011;16625;53.624;10.106;2022-10-15T14:13:20;15.73;;;5.83;;
4921;SDS011;16625;53.624;10.106;2022-10-15T14:18:40;10.57;;;5.97;;
4921;SDS011;16625;53.624;10.106;2022-10-15T14:21:11;10.13;;;6.27;;
4921;SDS011;16625;53.624;10.106;2022-10-15T14:23:40;12.87;;;6.23;;
4921;SDS011;16625;53.624;10.106;2022-10-15T14:26:08;11.93;;;8.43;;
4921;SDS011;16625;53.624;10.106;2022-10-15T14:28:37;9.87;;;5.80;;
4921;SDS011;16625;53.624;10.106;2022-10-15T14:31:05;9.70;;;6.03;;
4921;SDS011;16625;53.624;10.106;2022-10-15T14:33:38;15.40;;;6.20;;
4921;SDS011;16625;53.624;10.106;2022-10-15T14:36:10;11.00;;;7.70;;
4921;SDS011;16625;53.624;10.106;2022-10-15T14:38:48;13.23;;;7.93;;
4921;SDS011;16625;53.624;10.106;2022-10-15T14:41:26;16.27;;;8.63;;
4921;SDS011;16625;53.624;10.106;2022-10-15T14:44:01;14.10;;;8.20;;
4921;SDS011;16625;53.624;10.106;2022-10-15T14:46:34;10.60;;;6.70;;
4921;SDS011;16625;53.624;10.106;2022-10-15T14:49:11;15.93;;;8.00;;
4921;SDS011;16625;53.624;10.106;2022-10-15T14:51:45;13.17;;;8.13;;
4921;SDS011;16625;53.624;10.106;2022-10-15T14:54:20;11.70;;;8.77;;
4921;SDS011;16625;53.624;10.106;2022-10-15T14:56:53;11.93;;;7.73;;
4921;SDS011;16625;53.624;10.106;2022-10-15T14:59:21;13.80;;;9.00;;